KRAC/RAC METAR and TAF weather

Enter ICAO airport designator
Station Type Date Time Source
KRAC METAR 2020/03/28 09:16 UTC NOAA

KRAC 280916Z AUTO 04013KT 3SM RA BR OVC002 05/04 A2971 RMK AO2 P0002 T00500044


Station Type Date Time Source
KRAC Decoded METAR 2020/03/28 09:16 UTC NOAA

BATTEN INTERNATIONAL AIRPORT, WI, United States (KRAC) 42-46N 87-49W 203M
Mar 28, 2020 - 05:16 AM EDT / 2020.03.28 0916 UTC
Wind: from the NE (040 degrees) at 15 MPH (13 KT):0
Visibility: 3 mile(s):0
Sky conditions: overcast
Weather: rain; mist
Precipitation last hour: 0.02 inches
Temperature: 41.0 F (5.0 C)
Dew Point: 39.9 F (4.4 C)
Relative Humidity: 95%
Pressure (altimeter): 29.71 in. Hg (1006 hPa)
ob: KRAC 280916Z AUTO 04013KT 3SM RA BR OVC002 05/04 A2971 RMK AO2 P0002 T00500044
cycle: 9

Station Type Date Time Source
KRAC TAF UTC NOAA

Error!

Example: see airport list